Time;durP1;ratioP1;P1;durP2;ratioP2;P2;SDS_P1;SDS_P2;PMS_P1;PMS_P2;Temp;Humidity;BMP_temperature;BMP_pressure;BME280_temperature;BME280_humidity;BME280_pressure;Samples;Min_cycle;Max_cycle;Signal;HPM_P1;HPM_P2
2023/11/01 00:01:35;;;;;;;7.82;6.18;;;4.40;99.90;;;;;;4992657;28;20041;-82
2023/11/01 00:04:00;;;;;;;9.32;6.38;;;4.40;99.90;;;;;;4989300;28;20018;-83
2023/11/01 00:06:26;;;;;;;6.57;5.57;;;4.40;99.90;;;;;;4991063;28;20026;-82
2023/11/01 00:08:51;;;;;;;6.72;6.05;;;4.40;99.90;;;;;;4989754;28;20035;-82
2023/11/01 00:11:17;;;;;;;8.57;6.60;;;4.40;99.90;;;;;;4988383;28;20077;-83
2023/11/01 00:13:42;;;;;;;8.32;5.80;;;4.40;99.90;;;;;;4985676;28;20026;-82
2023/11/01 00:16:08;;;;;;;8.70;5.82;;;4.50;99.90;;;;;;4995834;28;20247;-82
2023/11/01 00:18:34;;;;;;;7.78;5.55;;;4.50;99.90;;;;;;4991247;28;20176;-83
2023/11/01 00:20:59;;;;;;;9.75;5.85;;;4.50;99.90;;;;;;4991454;28;20066;-82
2023/11/01 00:23:25;;;;;;;7.03;5.38;;;4.50;99.90;;;;;;4993295;28;20037;-82
2023/11/01 00:25:50;;;;;;;6.60;4.88;;;4.50;99.90;;;;;;4988514;28;20018;-83
2023/11/01 00:28:16;;;;;;;5.53;4.80;;;4.50;99.90;;;;;;4987361;28;20029;-83
2023/11/01 00:30:42;;;;;;;8.15;5.63;;;4.50;99.90;;;;;;4987655;28;20034;-84
2023/11/01 00:33:07;;;;;;;7.70;5.15;;;4.60;99.90;;;;;;4990062;28;20048;-82
2023/11/01 00:35:33;;;;;;;7.20;5.07;;;4.60;99.90;;;;;;4987054;28;20501;-83
2023/11/01 00:37:58;;;;;;;9.10;5.47;;;4.60;99.90;;;;;;4993972;28;20026;-82
2023/11/01 00:40:24;;;;;;;9.60;5.72;;;4.60;99.90;;;;;;4991658;28;20026;-83
2023/11/01 00:42:49;;;;;;;13.15;5.47;;;4.60;99.90;;;;;;4990559;28;20028;-82
2023/11/01 00:45:15;;;;;;;6.57;5.25;;;4.70;99.90;;;;;;4988455;28;20045;-82
2023/11/01 00:47:41;;;;;;;7.53;5.18;;;4.70;99.90;;;;;;4997622;28;20033;-83
2023/11/01 00:50:07;;;;;;;7.20;5.28;;;4.70;99.90;;;;;;4999323;28;20026;-84
2023/11/01 00:52:33;;;;;;;7.55;5.10;;;4.70;99.90;;;;;;5007566;28;20022;-83
2023/11/01 00:54:58;;;;;;;5.97;5.32;;;4.70;99.90;;;;;;4997759;28;20023;-83
2023/11/01 00:57:24;;;;;;;6.70;5.20;;;4.80;99.90;;;;;;4998127;28;20079;-85
2023/11/01 00:59:50;;;;;;;5.88;4.63;;;4.80;99.90;;;;;;4992471;28;20027;-84
2023/11/01 01:02:15;;;;;;;8.23;4.90;;;4.80;99.90;;;;;;4991897;28;20023;-85
2023/11/01 01:04:45;;;;;;;7.35;4.97;;;4.80;99.90;;;;;;4996035;28;20076;-85
2023/11/01 01:07:14;;;;;;;9.55;5.15;;;4.80;99.90;;;;;;4995206;28;20042;-84
2023/11/01 01:09:39;;;;;;;8.82;5.03;;;4.90;99.90;;;;;;4999733;28;20061;-83
2023/11/01 01:12:05;;;;;;;7.10;4.55;;;4.90;99.90;;;;;;4994362;28;20092;-82
2023/11/01 01:14:31;;;;;;;6.28;4.40;;;4.90;99.90;;;;;;4996143;28;20034;-82
2023/11/01 01:16:56;;;;;;;7.63;4.60;;;4.90;99.90;;;;;;4994162;28;20097;-82
2023/11/01 01:19:22;;;;;;;6.75;4.82;;;4.90;99.90;;;;;;4992241;28;20030;-83
2023/11/01 01:21:48;;;;;;;5.20;4.28;;;4.90;99.90;;;;;;4987256;28;20038;-83
2023/11/01 01:24:14;;;;;;;6.10;4.43;;;4.90;99.90;;;;;;4994416;28;20117;-84
2023/11/01 01:26:40;;;;;;;5.65;4.10;;;5.00;99.90;;;;;;4987737;28;20026;-83
2023/11/01 01:29:06;;;;;;;5.80;3.95;;;4.90;99.90;;;;;;4990382;28;20038;-83
2023/11/01 01:31:33;;;;;;;6.65;4.30;;;5.00;99.90;;;;;;4996378;28;20037;-84
2023/11/01 01:33:59;;;;;;;5.38;3.75;;;5.00;99.90;;;;;;4997183;28;20097;-84
2023/11/01 01:36:24;;;;;;;6.35;3.88;;;5.00;99.90;;;;;;4998454;28;20062;-83
2023/11/01 01:38:50;;;;;;;4.55;3.63;;;5.00;99.90;;;;;;4991520;28;20023;-84
2023/11/01 01:41:15;;;;;;;5.82;3.17;;;5.00;99.90;;;;;;4988390;28;20026;-84
2023/11/01 01:43:41;;;;;;;5.97;3.50;;;5.00;99.90;;;;;;5000534;28;20064;-84
2023/11/01 01:46:11;;;;;;;4.30;3.10;;;5.00;99.90;;;;;;4995216;28;20015;-83
2023/11/01 01:48:38;;;;;;;4.75;3.28;;;5.00;99.90;;;;;;4986136;28;20266;-82
2023/11/01 01:51:04;;;;;;;5.03;3.47;;;5.10;99.90;;;;;;4984199;28;20471;-82
2023/11/01 01:53:33;;;;;;;4.90;3.20;;;5.10;99.90;;;;;;4996467;28;20029;-83
2023/11/01 01:55:59;;;;;;;5.90;3.58;;;5.10;99.90;;;;;;4989978;28;20018;-84
2023/11/01 01:58:30;;;;;;;4.93;3.80;;;5.10;99.90;;;;;;4992651;28;20030;-82
2023/11/01 02:00:56;;;;;;;5.80;4.00;;;5.10;99.90;;;;;;4999071;28;20072;-83
2023/11/01 02:03:22;;;;;;;4.20;3.53;;;5.10;99.90;;;;;;4999685;28;20121;-83
2023/11/01 02:05:48;;;;;;;5.18;3.97;;;5.10;99.90;;;;;;4992494;28;20114;-83
2023/11/01 02:08:14;;;;;;;5.10;3.72;;;5.10;99.90;;;;;;4988972;28;20125;-83
2023/11/01 02:10:40;;;;;;;6.65;4.70;;;5.20;99.90;;;;;;5002062;28;20451;-83
2023/11/01 02:13:13;;;;;;;5.97;4.80;;;5.20;99.90;;;;;;4993457;28;20092;-83
2023/11/01 02:15:41;;;;;;;5.63;3.92;;;5.20;99.90;;;;;;4986777;28;20030;-82
2023/11/01 02:18:07;;;;;;;4.82;4.13;;;5.20;99.90;;;;;;5001073;28;20506;-82
2023/11/01 02:20:35;;;;;;;4.80;3.95;;;5.20;99.90;;;;;;4977864;28;20022;-82
2023/11/01 02:23:33;;;;;;;5.88;4.15;;;5.20;99.90;;;;;;4986298;28;20018;-83
2023/11/01 02:26:00;;;;;;;7.65;4.28;;;5.20;99.90;;;;;;4982240;28;20490;-83
2023/11/01 02:28:26;;;;;;;4.78;4.05;;;5.20;99.90;;;;;;4987850;28;20396;-84
2023/11/01 02:30:52;;;;;;;6.18;3.70;;;5.20;99.90;;;;;;4986388;28;20624;-83
2023/11/01 02:33:17;;;;;;;6.57;3.85;;;5.30;99.90;;;;;;4987880;28;20027;-83
2023/11/01 02:35:43;;;;;;;7.35;4.07;;;5.30;99.90;;;;;;4984636;28;20046;-83
2023/11/01 02:38:09;;;;;;;6.50;3.42;;;5.30;99.90;;;;;;4991671;28;20029;-84
2023/11/01 02:40:35;;;;;;;6.38;3.40;;;5.30;99.90;;;;;;4985491;28;20030;-81
2023/11/01 02:43:01;;;;;;;4.00;3.20;;;5.30;99.90;;;;;;4985990;28;20038;-83
2023/11/01 02:45:27;;;;;;;6.05;2.70;;;5.30;99.90;;;;;;4991991;28;20053;-83
2023/11/01 02:47:52;;;;;;;4.47;2.47;;;5.40;99.90;;;;;;4987434;28;20393;-83
2023/11/01 02:50:21;;;;;;;3.92;2.10;;;5.30;99.90;;;;;;4991102;28;20035;-83
2023/11/01 02:52:47;;;;;;;3.40;2.20;;;5.30;99.90;;;;;;4991265;28;20478;-83
2023/11/01 02:55:15;;;;;;;9.07;2.03;;;5.30;99.90;;;;;;4991693;28;20037;-83
2023/11/01 02:57:42;;;;;;;4.57;1.80;;;5.30;99.90;;;;;;4987267;28;20058;-83
2023/11/01 03:00:17;;;;;;;2.95;1.90;;;5.30;99.90;;;;;;4987038;28;20027;-83
2023/11/01 03:02:47;;;;;;;2.15;1.80;;;5.30;99.90;;;;;;4983276;28;20022;-83
2023/11/01 03:05:13;;;;;;;2.22;1.63;;;5.30;99.90;;;;;;4987016;28;20030;-83
2023/11/01 03:07:39;;;;;;;4.18;1.95;;;5.40;99.90;;;;;;4983621;28;20034;-83
2023/11/01 03:10:05;;;;;;;3.22;2.00;;;5.30;99.90;;;;;;4991356;28;20065;-84
2023/11/01 03:12:31;;;;;;;2.40;1.52;;;5.30;99.90;;;;;;4988843;28;20129;-83
2023/11/01 03:14:57;;;;;;;2.10;1.45;;;5.30;99.90;;;;;;4985477;28;20033;-83
2023/11/01 03:17:22;;;;;;;4.43;1.45;;;5.30;99.90;;;;;;4989860;28;20512;-83
2023/11/01 03:19:48;;;;;;;6.28;1.55;;;5.30;99.90;;;;;;4988672;28;20026;-83
2023/11/01 03:22:13;;;;;;;2.85;1.25;;;5.30;99.90;;;;;;4992062;28;20102;-84
2023/11/01 03:24:39;;;;;;;3.38;1.27;;;5.30;99.90;;;;;;4998309;28;20060;-83
2023/11/01 03:27:04;;;;;;;1.70;1.33;;;5.30;99.90;;;;;;4992950;28;20026;-83
2023/11/01 03:29:30;;;;;;;3.45;1.40;;;5.30;99.90;;;;;;4984698;28;20045;-83
2023/11/01 03:31:56;;;;;;;3.17;1.23;;;5.30;99.90;;;;;;4982643;28;20031;-83
2023/11/01 03:34:23;;;;;;;1.90;1.10;;;5.30;99.90;;;;;;4993179;28;20094;-84
2023/11/01 03:36:49;;;;;;;3.30;1.58;;;5.30;99.90;;;;;;4992869;28;20049;-84
2023/11/01 03:39:14;;;;;;;1.90;1.27;;;5.30;99.90;;;;;;4994292;28;20052;-87
2023/11/01 03:41:41;;;;;;;2.25;1.80;;;5.30;99.90;;;;;;4993475;28;20105;-83
2023/11/01 03:44:07;;;;;;;3.20;1.40;;;5.30;99.90;;;;;;5014081;28;20018;-85
2023/11/01 03:46:32;;;;;;;2.80;1.95;;;5.30;99.90;;;;;;5006710;28;20037;-84
2023/11/01 03:48:58;;;;;;;2.22;1.60;;;5.30;99.90;;;;;;4994990;28;20113;-84
2023/11/01 03:51:24;;;;;;;4.13;1.63;;;5.30;99.90;;;;;;4997536;28;20375;-85
2023/11/01 03:53:49;;;;;;;2.70;1.35;;;5.40;99.90;;;;;;4995930;28;20030;-84
2023/11/01 03:56:15;;;;;;;3.53;2.00;;;5.40;99.90;;;;;;4996589;28;20030;-85
2023/11/01 03:58:40;;;;;;;3.22;1.98;;;5.30;99.90;;;;;;4998111;28;20537;-84
2023/11/01 04:01:07;;;;;;;2.47;1.73;;;5.40;99.90;;;;;;4994157;28;20018;-85
2023/11/01 04:03:33;;;;;;;3.80;2.05;;;5.40;99.90;;;;;;4995699;28;20035;-83
2023/11/01 04:05:58;;;;;;;4.95;2.13;;;5.40;99.90;;;;;;4996282;28;20018;-85
2023/11/01 04:08:24;;;;;;;4.03;2.15;;;5.40;99.90;;;;;;4996826;28;20018;-84
2023/11/01 04:10:49;;;;;;;5.03;2.03;;;5.40;99.90;;;;;;4999833;28;20050;-84
2023/11/01 04:13:15;;;;;;;4.13;1.88;;;5.40;99.90;;;;;;4998306;28;20034;-85
2023/11/01 04:15:41;;;;;;;2.97;2.05;;;5.40;99.90;;;;;;4993207;28;20037;-83
2023/11/01 04:18:07;;;;;;;6.00;1.92;;;5.40;99.90;;;;;;4991608;28;20035;-84
2023/11/01 04:20:32;;;;;;;3.83;1.70;;;5.40;99.90;;;;;;5001329;28;20565;-83
2023/11/01 04:22:58;;;;;;;2.58;1.60;;;5.40;99.90;;;;;;5002413;28;20385;-84
2023/11/01 04:25:24;;;;;;;2.63;1.70;;;5.40;99.90;;;;;;4998993;28;20023;-84
2023/11/01 04:27:50;;;;;;;4.28;1.52;;;5.40;99.90;;;;;;4998451;28;20049;-85
2023/11/01 04:30:16;;;;;;;2.05;1.67;;;5.40;99.90;;;;;;4989474;28;20034;-85
2023/11/01 04:32:42;;;;;;;3.45;1.80;;;5.40;99.90;;;;;;4994178;28;20541;-83
2023/11/01 04:35:10;;;;;;;2.65;1.80;;;5.40;99.90;;;;;;4998582;28;20022;-83
2023/11/01 04:37:41;;;;;;;3.13;1.33;;;5.50;99.90;;;;;;4995425;28;20420;-83
2023/11/01 04:40:08;;;;;;;2.58;1.70;;;5.40;99.90;;;;;;4995834;28;20025;-83
2023/11/01 04:42:38;;;;;;;3.40;1.20;;;5.50;99.90;;;;;;4986506;28;20022;-84
2023/11/01 04:45:06;;;;;;;1.92;1.63;;;5.40;99.90;;;;;;4997349;28;20018;-84
2023/11/01 04:47:31;;;;;;;4.32;1.75;;;5.50;99.90;;;;;;4998151;28;20022;-83
2023/11/01 04:49:57;;;;;;;3.17;1.70;;;5.40;99.90;;;;;;4996009;28;20605;-83
2023/11/01 04:52:22;;;;;;;2.55;1.30;;;5.50;99.90;;;;;;4995708;28;20490;-84
2023/11/01 04:54:48;;;;;;;6.03;1.73;;;5.50;99.90;;;;;;4998669;28;20036;-84
2023/11/01 04:57:13;;;;;;;3.00;1.33;;;5.50;99.90;;;;;;5001183;28;20078;-85
2023/11/01 04:59:39;;;;;;;6.10;1.67;;;5.50;99.90;;;;;;5020186;28;20041;-86
2023/11/01 05:02:04;;;;;;;3.70;1.30;;;5.50;99.90;;;;;;5003461;28;20030;-85
2023/11/01 05:04:30;;;;;;;2.83;1.45;;;5.50;99.90;;;;;;4995270;28;20098;-85
2023/11/01 05:06:55;;;;;;;1.98;1.35;;;5.50;99.90;;;;;;4997734;28;20026;-84
2023/11/01 05:09:22;;;;;;;3.72;1.67;;;5.50;99.90;;;;;;4996639;28;20045;-84
2023/11/01 05:11:47;;;;;;;1.55;1.42;;;5.50;99.90;;;;;;4995391;28;20050;-84
2023/11/01 05:14:13;;;;;;;3.47;1.50;;;5.50;99.90;;;;;;4995145;28;20034;-85
2023/11/01 05:16:39;;;;;;;1.42;1.20;;;5.50;99.90;;;;;;4996187;28;20031;-87
2023/11/01 05:19:08;;;;;;;2.45;1.42;;;5.50;99.90;;;;;;5000743;28;20126;-85
2023/11/01 05:21:35;;;;;;;2.50;1.50;;;5.50;99.90;;;;;;5002310;28;20056;-84
2023/11/01 05:24:01;;;;;;;3.95;1.33;;;5.50;99.90;;;;;;4995169;28;20036;-84
2023/11/01 05:26:29;;;;;;;4.57;1.55;;;5.50;99.90;;;;;;4996105;28;20015;-85
2023/11/01 05:28:56;;;;;;;2.22;1.02;;;5.50;99.90;;;;;;4991865;28;20053;-85
2023/11/01 05:31:22;;;;;;;2.30;1.20;;;5.50;99.90;;;;;;4994930;28;20037;-86
2023/11/01 05:33:47;;;;;;;2.67;1.23;;;5.60;99.90;;;;;;5000822;28;20019;-85
2023/11/01 05:36:14;;;;;;;4.47;1.10;;;5.60;99.90;;;;;;4999099;28;20014;-85
2023/11/01 05:38:40;;;;;;;2.35;1.20;;;5.60;99.90;;;;;;5001456;28;20057;-85
2023/11/01 05:41:08;;;;;;;2.20;1.30;;;5.60;99.90;;;;;;4989891;28;20030;-85
2023/11/01 05:43:37;;;;;;;1.73;1.05;;;5.60;99.90;;;;;;4992430;28;20381;-84
2023/11/01 05:46:04;;;;;;;5.55;1.13;;;5.60;99.90;;;;;;5000351;28;20014;-85
2023/11/01 05:48:31;;;;;;;3.60;0.82;;;5.60;99.90;;;;;;4986715;28;20015;-85
2023/11/01 05:50:58;;;;;;;1.35;1.10;;;5.60;99.90;;;;;;4988972;28;20526;-85
2023/11/01 05:53:24;;;;;;;1.95;0.88;;;5.60;99.90;;;;;;4994683;28;20552;-86
2023/11/01 05:55:49;;;;;;;2.08;1.25;;;5.60;99.90;;;;;;4989193;28;20023;-85
2023/11/01 05:58:15;;;;;;;1.08;0.98;;;5.60;99.90;;;;;;4988459;28;20129;-84
2023/11/01 06:00:40;;;;;;;1.10;1.00;;;5.60;99.90;;;;;;4993325;28;20042;-86
2023/11/01 06:03:06;;;;;;;1.05;0.68;;;5.60;99.90;;;;;;4991804;28;20010;-83
2023/11/01 06:05:35;;;;;;;2.15;0.88;;;5.60;99.90;;;;;;4980331;28;20015;-84
2023/11/01 06:08:04;;;;;;;1.15;0.80;;;5.60;99.90;;;;;;4996164;28;20109;-84
2023/11/01 06:10:30;;;;;;;3.97;0.90;;;5.60;99.90;;;;;;4993671;28;20030;-84
2023/11/01 06:12:55;;;;;;;3.05;1.00;;;5.60;99.90;;;;;;4989200;28;20022;-83
2023/11/01 06:15:21;;;;;;;1.98;0.80;;;5.60;99.90;;;;;;4989550;28;20065;-84
2023/11/01 06:17:47;;;;;;;2.20;1.08;;;5.60;99.90;;;;;;4989632;28;20239;-84
2023/11/01 06:20:13;;;;;;;2.58;1.08;;;5.60;99.90;;;;;;4988818;28;20041;-83
2023/11/01 06:22:39;;;;;;;1.85;0.95;;;5.60;99.90;;;;;;4983952;28;20501;-84
2023/11/01 06:25:08;;;;;;;1.45;0.80;;;5.60;99.90;;;;;;4985963;28;20471;-84
2023/11/01 06:27:35;;;;;;;3.03;0.85;;;5.60;99.90;;;;;;4984092;28;20117;-84
2023/11/01 06:30:01;;;;;;;4.28;1.15;;;5.70;99.90;;;;;;4984391;28;20035;-84
2023/11/01 06:32:26;;;;;;;2.90;1.10;;;5.70;99.90;;;;;;4994770;28;20057;-84
2023/11/01 06:34:52;;;;;;;2.90;0.80;;;5.70;99.90;;;;;;5004711;28;20033;-84
2023/11/01 06:37:17;;;;;;;2.47;1.33;;;5.70;99.90;;;;;;5002562;28;20113;-84
2023/11/01 06:39:43;;;;;;;1.95;1.13;;;5.60;99.90;;;;;;4993423;28;20022;-85
2023/11/01 06:42:08;;;;;;;2.72;1.20;;;5.70;99.90;;;;;;4989920;28;20052;-85
2023/11/01 06:44:34;;;;;;;3.35;1.58;;;5.70;99.90;;;;;;4987402;28;20098;-84
2023/11/01 06:46:59;;;;;;;3.45;1.55;;;5.70;99.90;;;;;;4992708;28;20027;-84
2023/11/01 06:49:25;;;;;;;2.20;1.10;;;5.70;99.90;;;;;;4987632;28;20034;-84
2023/11/01 06:51:51;;;;;;;3.95;1.60;;;5.70;99.90;;;;;;4987730;28;20029;-85
2023/11/01 06:54:16;;;;;;;3.80;1.17;;;5.80;99.90;;;;;;4983033;28;20096;-84
2023/11/01 06:56:45;;;;;;;4.38;1.73;;;5.80;99.90;;;;;;4987686;28;20116;-84
2023/11/01 06:59:14;;;;;;;5.22;1.58;;;5.80;99.90;;;;;;4987838;28;20022;-85
2023/11/01 07:01:41;;;;;;;3.72;1.77;;;5.80;99.90;;;;;;4990729;28;20021;-84
2023/11/01 07:04:06;;;;;;;7.95;2.00;;;5.80;99.90;;;;;;4990851;28;20153;-84
2023/11/01 07:06:32;;;;;;;4.22;1.70;;;5.80;99.90;;;;;;4989574;28;20776;-84
2023/11/01 07:08:57;;;;;;;3.65;1.75;;;5.80;99.90;;;;;;4988724;28;20099;-84
2023/11/01 07:11:24;;;;;;;5.68;2.47;;;5.80;99.90;;;;;;4979950;28;20018;-83
2023/11/01 07:13:50;;;;;;;3.97;2.25;;;5.80;99.90;;;;;;4985938;28;20006;-83
2023/11/01 07:16:16;;;;;;;4.28;2.90;;;5.90;99.90;;;;;;4986893;28;20105;-83
2023/11/01 07:18:41;;;;;;;4.07;2.40;;;5.80;99.90;;;;;;4980357;28;20192;-83
2023/11/01 07:21:11;;;;;;;5.53;2.08;;;5.90;99.90;;;;;;4988740;28;20042;-83
2023/11/01 07:23:36;;;;;;;4.03;2.55;;;5.90;99.90;;;;;;4997294;28;20386;-83
2023/11/01 07:26:02;;;;;;;4.38;2.40;;;5.90;99.90;;;;;;4988908;28;20021;-83
2023/11/01 07:28:28;;;;;;;7.63;2.72;;;6.00;99.90;;;;;;4986706;28;20483;-83
2023/11/01 07:30:54;;;;;;;5.35;2.40;;;6.00;99.90;;;;;;4994299;28;20042;-84
2023/11/01 07:33:19;;;;;;;7.88;3.35;;;6.00;99.90;;;;;;4993584;28;20103;-84
2023/11/01 07:35:45;;;;;;;5.57;2.75;;;6.00;99.90;;;;;;4994137;28;20030;-83
2023/11/01 07:38:10;;;;;;;8.48;3.38;;;6.00;99.90;;;;;;4993984;28;20034;-82
2023/11/01 07:40:36;;;;;;;6.13;2.88;;;6.00;99.90;;;;;;4990661;28;20063;-83
2023/11/01 07:43:02;;;;;;;5.40;2.72;;;6.10;99.90;;;;;;4986168;28;20579;-84
2023/11/01 07:45:28;;;;;;;4.97;2.85;;;6.10;99.90;;;;;;4988009;28;20041;-83
2023/11/01 07:47:53;;;;;;;7.30;3.33;;;6.10;99.90;;;;;;4990671;28;20038;-83
2023/11/01 07:50:19;;;;;;;5.82;2.85;;;6.10;99.90;;;;;;4998758;28;20491;-84
2023/11/01 07:52:45;;;;;;;10.38;3.15;;;6.20;99.90;;;;;;4989097;28;20050;-83
2023/11/01 07:55:11;;;;;;;5.90;3.08;;;6.20;99.90;;;;;;4990468;28;20101;-84
2023/11/01 07:57:36;;;;;;;8.75;3.13;;;6.20;99.90;;;;;;4992938;28;20370;-83
2023/11/01 08:00:05;;;;;;;4.97;2.60;;;6.20;99.90;;;;;;4989083;28;20023;-84
2023/11/01 08:02:31;;;;;;;7.03;3.08;;;6.20;99.90;;;;;;4998519;28;20018;-84
2023/11/01 08:04:56;;;;;;;5.65;3.20;;;6.20;99.90;;;;;;4988149;28;20014;-84
2023/11/01 08:07:22;;;;;;;6.53;3.25;;;6.20;99.90;;;;;;4992007;28;20042;-84
2023/11/01 08:09:48;;;;;;;5.88;3.38;;;6.20;99.90;;;;;;4995328;28;20028;-84
2023/11/01 08:12:13;;;;;;;8.20;4.05;;;6.30;99.90;;;;;;4991998;28;20049;-84
2023/11/01 08:14:39;;;;;;;6.47;3.38;;;6.30;99.90;;;;;;4983859;28;20615;-83
2023/11/01 08:17:05;;;;;;;7.65;2.97;;;6.30;99.90;;;;;;4993378;28;20148;-83
2023/11/01 08:19:31;;;;;;;7.90;3.67;;;6.30;99.90;;;;;;4997231;28;20499;-85
2023/11/01 08:21:56;;;;;;;7.00;3.47;;;6.40;99.90;;;;;;4986841;28;20030;-84
2023/11/01 08:24:22;;;;;;;7.45;3.70;;;6.40;99.90;;;;;;4997768;28;20034;-84
2023/11/01 08:26:47;;;;;;;5.95;3.53;;;6.40;99.90;;;;;;4990845;28;20114;-84
2023/11/01 08:29:13;;;;;;;6.68;4.07;;;6.40;99.90;;;;;;4995334;28;20029;-84
2023/11/01 08:31:40;;;;;;;5.97;3.42;;;6.40;99.90;;;;;;4992393;28;20356;-84
2023/11/01 08:34:07;;;;;;;8.98;3.60;;;6.50;99.90;;;;;;4994664;28;20554;-84
2023/11/01 08:36:33;;;;;;;9.48;3.70;;;6.50;99.90;;;;;;4996426;28;20389;-83
2023/11/01 08:38:59;;;;;;;9.57;3.92;;;6.60;99.90;;;;;;4992675;28;20023;-82
2023/11/01 08:41:24;;;;;;;8.85;4.32;;;6.60;99.90;;;;;;4999033;28;20032;-84
2023/11/01 08:43:50;;;;;;;9.63;3.92;;;6.60;99.90;;;;;;4989382;28;20026;-84
2023/11/01 08:46:16;;;;;;;6.40;3.55;;;6.70;99.90;;;;;;4991831;28;20113;-84
2023/11/01 08:48:42;;;;;;;6.07;3.90;;;6.70;99.90;;;;;;4990955;28;20030;-83
2023/11/01 08:51:10;;;;;;;7.55;3.22;;;6.80;99.90;;;;;;4993268;28;20095;-84
2023/11/01 08:53:38;;;;;;;5.10;3.45;;;6.70;99.90;;;;;;4993960;28;20018;-84
2023/11/01 08:56:05;;;;;;;7.30;3.83;;;6.80;99.90;;;;;;4993514;28;20019;-83
2023/11/01 08:58:31;;;;;;;8.63;4.18;;;6.80;99.90;;;;;;4988409;28;20042;-83
2023/11/01 09:00:57;;;;;;;5.57;3.65;;;6.80;99.90;;;;;;4992037;28;20027;-83
2023/11/01 09:03:25;;;;;;;7.40;3.38;;;6.90;99.90;;;;;;4993361;28;20065;-84
2023/11/01 09:05:51;;;;;;;10.57;4.05;;;6.90;99.90;;;;;;4985246;28;20023;-83
2023/11/01 09:08:17;;;;;;;4.93;3.75;;;7.00;99.90;;;;;;4989903;28;20033;-84
2023/11/01 09:10:42;;;;;;;10.15;4.57;;;7.00;99.90;;;;;;4990820;28;20018;-85
2023/11/01 09:13:08;;;;;;;7.88;3.97;;;7.00;99.90;;;;;;4991148;28;20037;-84
2023/11/01 09:15:33;;;;;;;8.57;4.43;;;7.10;99.90;;;;;;4990475;28;20030;-86
2023/11/01 09:17:59;;;;;;;8.73;3.15;;;7.20;99.90;;;;;;4990872;28;20037;-85
2023/11/01 09:20:25;;;;;;;11.27;4.90;;;7.20;99.90;;;;;;4995306;28;20019;-85
2023/11/01 09:22:50;;;;;;;7.70;4.43;;;7.30;99.90;;;;;;4994651;28;20026;-84
2023/11/01 09:25:17;;;;;;;7.72;4.68;;;7.30;99.90;;;;;;4990144;28;20541;-84
2023/11/01 09:27:42;;;;;;;6.47;4.38;;;7.40;99.90;;;;;;4992833;28;20088;-85
2023/11/01 09:30:09;;;;;;;5.75;4.25;;;7.40;99.90;;;;;;4994220;28;20026;-85
2023/11/01 09:32:36;;;;;;;8.02;4.70;;;7.40;99.90;;;;;;4995680;28;20038;-84
2023/11/01 09:35:02;;;;;;;7.18;4.25;;;7.50;99.90;;;;;;4995527;28;20042;-85
2023/11/01 09:37:29;;;;;;;5.05;3.97;;;7.50;99.90;;;;;;4989673;28;20522;-85
2023/11/01 09:39:54;;;;;;;7.03;3.92;;;7.60;99.90;;;;;;4991687;28;20046;-85
2023/11/01 09:42:21;;;;;;;5.60;3.72;;;7.60;99.90;;;;;;4994764;28;20038;-84
2023/11/01 09:44:52;;;;;;;13.05;4.38;;;7.60;99.90;;;;;;4994121;28;20030;-84
2023/11/01 09:47:18;;;;;;;7.13;4.57;;;7.70;99.90;;;;;;4997809;28;20034;-84
2023/11/01 09:49:44;;;;;;;9.00;3.85;;;7.70;99.90;;;;;;5001778;28;20036;-84
2023/11/01 09:52:11;;;;;;;8.65;4.18;;;7.70;99.90;;;;;;4998012;28;20022;-84
2023/11/01 09:54:36;;;;;;;7.50;4.05;;;7.80;99.90;;;;;;4991406;28;20064;-84
2023/11/01 09:57:05;;;;;;;5.30;3.88;;;7.80;99.90;;;;;;4992097;28;20070;-84
2023/11/01 09:59:32;;;;;;;8.02;4.90;;;7.90;99.90;;;;;;5008650;28;20116;-83
2023/11/01 10:02:00;;;;;;;7.03;4.10;;;7.90;99.90;;;;;;4995509;28;20018;-84
2023/11/01 10:04:25;;;;;;;6.32;4.50;;;7.90;99.90;;;;;;5001503;28;20704;-84
2023/11/01 10:06:51;;;;;;;5.50;3.80;;;8.00;99.90;;;;;;4992808;28;20022;-86
2023/11/01 10:09:17;;;;;;;10.70;5.10;;;8.10;99.90;;;;;;4999543;28;20030;-84
2023/11/01 10:11:45;;;;;;;7.45;4.03;;;8.10;99.90;;;;;;4995296;28;20041;-83
2023/11/01 10:14:12;;;;;;;7.40;4.68;;;8.20;99.90;;;;;;4998199;28;20038;-84
2023/11/01 10:16:39;;;;;;;8.00;4.78;;;8.30;99.90;;;;;;4993769;28;20126;-83
2023/11/01 10:19:05;;;;;;;8.93;4.85;;;8.40;99.90;;;;;;4993961;28;20294;-83
2023/11/01 10:21:31;;;;;;;5.72;4.20;;;8.40;99.90;;;;;;4999170;28;20034;-86
2023/11/01 10:24:01;;;;;;;4.63;3.92;;;8.50;99.90;;;;;;4997471;28;20006;-84
2023/11/01 10:26:30;;;;;;;6.10;4.57;;;8.60;99.90;;;;;;4992122;28;20025;-84
2023/11/01 10:28:57;;;;;;;8.95;4.53;;;8.60;99.90;;;;;;4990316;28;20042;-83
2023/11/01 10:31:23;;;;;;;4.78;3.97;;;8.70;99.90;;;;;;4989122;28;20076;-83
2023/11/01 10:33:48;;;;;;;7.70;4.63;;;8.80;99.90;;;;;;4991602;28;20117;-84
2023/11/01 10:36:14;;;;;;;6.35;4.10;;;8.80;99.90;;;;;;4994446;28;20327;-84
2023/11/01 10:38:41;;;;;;;8.77;4.30;;;8.90;99.90;;;;;;4988712;28;20027;-83
2023/11/01 10:41:06;;;;;;;7.03;4.28;;;9.00;99.90;;;;;;4991385;28;20034;-84
2023/11/01 10:43:32;;;;;;;5.03;4.07;;;9.00;99.90;;;;;;4988355;28;20063;-84
2023/11/01 10:45:59;;;;;;;7.28;4.90;;;9.10;99.90;;;;;;4988578;28;20026;-83
2023/11/01 10:48:29;;;;;;;6.18;4.78;;;9.20;99.90;;;;;;4993282;28;20034;-84
2023/11/01 10:50:57;;;;;;;5.45;4.57;;;9.20;99.90;;;;;;4998866;28;20033;-84
2023/11/01 10:53:23;;;;;;;6.57;4.50;;;9.30;99.90;;;;;;4985524;28;20023;-84
2023/11/01 10:55:51;;;;;;;8.00;4.78;;;9.30;99.90;;;;;;4998047;28;20025;-85
2023/11/01 10:58:24;;;;;;;5.38;4.10;;;9.40;99.90;;;;;;5000863;28;20049;-83
2023/11/01 11:01:10;;;;;;;5.28;4.32;;;9.40;99.90;;;;;;4993833;28;20032;-84
2023/11/01 11:03:53;;;;;;;5.28;4.78;;;9.40;99.90;;;;;;4997786;28;20022;-84
2023/11/01 11:06:26;;;;;;;5.55;4.18;;;9.40;99.90;;;;;;4994774;28;20026;-83
2023/11/01 11:09:21;;;;;;;11.43;5.05;;;9.50;99.90;;;;;;5000656;28;20065;-84
2023/11/01 11:12:13;;;;;;;5.45;4.38;;;9.50;99.90;;;;;;4994970;28;20037;-86
2023/11/01 11:14:47;;;;;;;7.60;4.90;;;9.60;99.90;;;;;;4998236;28;20037;-84
2023/11/01 11:17:20;;;;;;;8.63;4.65;;;9.60;99.90;;;;;;4996640;28;20026;-83
2023/11/01 11:20:11;;;;;;;4.45;3.92;;;9.60;99.90;;;;;;5001406;28;20411;-84
2023/11/01 11:23:01;;;;;;;4.45;3.70;;;9.70;99.90;;;;;;4995024;28;20099;-85
2023/11/01 11:25:45;;;;;;;6.32;4.10;;;9.80;99.90;;;;;;4995529;28;20092;-84
2023/11/01 11:28:11;;;;;;;6.15;4.32;;;9.80;99.90;;;;;;5003343;28;20034;-84
2023/11/01 11:30:56;;;;;;;6.45;4.18;;;9.90;99.90;;;;;;4993248;28;20026;-84
2023/11/01 11:33:22;;;;;;;10.00;4.75;;;9.90;99.90;;;;;;4997797;28;20097;-84
2023/11/01 11:36:11;;;;;;;7.65;4.28;;;9.90;99.90;;;;;;4998792;28;20022;-84
2023/11/01 11:38:37;;;;;;;6.78;3.65;;;10.00;99.90;;;;;;4972911;28;20042;-82
2023/11/01 11:41:19;;;;;;;6.15;3.92;;;10.00;99.90;;;;;;4996817;28;20018;-83
2023/11/01 11:44:04;;;;;;;4.65;3.25;;;10.10;99.90;;;;;;4989379;28;20026;-84
2023/11/01 11:46:40;;;;;;;3.75;3.38;;;10.10;99.90;;;;;;4994628;28;20014;-83
2023/11/01 11:49:27;;;;;;;6.88;3.67;;;10.10;99.90;;;;;;4992279;28;20498;-83
2023/11/01 11:51:57;;;;;;;6.03;4.03;;;10.20;99.90;;;;;;4990295;28;20118;-84
2023/11/01 11:54:34;;;;;;;3.17;2.88;;;10.30;99.90;;;;;;4989760;28;20387;-83
2023/11/01 11:57:08;;;;;;;4.80;3.80;;;10.30;99.90;;;;;;4995145;28;20040;-84
2023/11/01 11:59:35;;;;;;;6.22;4.05;;;10.40;99.90;;;;;;4989631;28;20026;-84
2023/11/01 12:02:16;;;;;;;7.20;3.60;;;10.50;99.90;;;;;;4988993;28;20069;-84
2023/11/01 12:04:47;;;;;;;4.75;3.38;;;10.50;99.90;;;;;;4995224;28;20014;-84
2023/11/01 12:07:18;;;;;;;5.13;3.88;;;10.60;99.90;;;;;;4997543;28;20032;-84
2023/11/01 12:09:54;;;;;;;6.72;3.75;;;10.60;99.90;;;;;;5004058;28;20049;-83
2023/11/01 12:12:20;;;;;;;;;;;10.60;99.90;;;;;;5004398;28;20954;-85
2023/11/01 12:14:55;;;;;;;5.60;4.18;;;10.60;99.90;;;;;;4995950;28;20329;-84
2023/11/01 12:17:21;;;;;;;5.90;3.33;;;10.60;99.90;;;;;;4996006;28;20038;-83
2023/11/01 12:19:47;;;;;;;5.80;3.55;;;10.70;99.90;;;;;;5007115;28;20021;-83
2023/11/01 12:22:13;;;;;;;5.20;3.65;;;10.60;99.90;;;;;;4991564;28;20507;-85
2023/11/01 12:24:38;;;;;;;4.28;3.58;;;10.60;99.90;;;;;;4989313;28;20052;-82
2023/11/01 12:27:11;;;;;;;4.53;3.10;;;10.70;99.90;;;;;;4989524;28;20253;-84
2023/11/01 12:29:44;;;;;;;3.95;3.45;;;10.70;99.90;;;;;;4993932;28;20477;-84
2023/11/01 12:32:16;;;;;;;3.25;2.95;;;10.70;99.90;;;;;;4991993;28;20033;-85
2023/11/01 12:34:48;;;;;;;4.60;3.25;;;10.70;99.90;;;;;;4995259;28;20018;-84
2023/11/01 12:37:18;;;;;;;4.20;2.78;;;10.70;99.90;;;;;;4999221;28;20483;-84
2023/11/01 12:40:12;;;;;;;4.28;3.22;;;10.60;99.90;;;;;;4993842;28;20021;-84
2023/11/01 12:42:39;;;;;;;4.30;3.70;;;10.60;99.90;;;;;;4984608;28;20049;-83
2023/11/01 12:45:05;;;;;;;4.82;2.80;;;10.60;99.90;;;;;;4987229;28;20030;-82
2023/11/01 12:47:40;;;;;;;5.82;2.88;;;10.60;99.90;;;;;;4991975;28;20085;-83
2023/11/01 12:50:06;;;;;;;3.50;3.05;;;10.60;99.90;;;;;;4990296;28;20495;-83
2023/11/01 12:52:32;;;;;;;4.45;3.60;;;10.60;99.90;;;;;;4989818;28;20050;-83
2023/11/01 12:54:57;;;;;;;3.33;3.03;;;10.60;99.90;;;;;;4991014;28;21952;-82
2023/11/01 12:57:23;;;;;;;4.15;3.10;;;10.60;99.90;;;;;;4994651;28;20145;-82